Time,TemperatureF,DewpointF,PressureIn,WindDirection,WindDirectionDegrees,WindSpeedMPH,WindSpeedGustMPH,Humidity,HourlyPrecipIn,Conditions,Clouds,dailyrainin,SoftwareType,DateUTC
2013-09-19 00:03:00,50.7,49.9,29.95,NNE,14,3.0,3.0,97,0.00,,,0.00,Wunderground v.1.15,2013-09-19 07:03:00,
2013-09-19 00:09:00,50.6,50.1,29.95,NNE,14,3.0,4.0,98,0.00,,,0.00,Wunderground v.1.15,2013-09-19 07:09:00,
2013-09-19 00:15:00,50.6,50.1,29.95,NNE,14,3.0,4.0,98,0.00,,,0.00,Wunderground v.1.15,2013-09-19 07:15:00,
2013-09-19 00:21:00,50.4,49.9,29.94,NNE,14,3.0,3.0,98,0.00,,,0.00,Wunderground v.1.15,2013-09-19 07:21:00,
2013-09-19 00:27:00,50.4,49.9,29.94,NNE,15,3.0,3.0,98,0.00,,,0.00,Wunderground v.1.15,2013-09-19 07:27:00,
2013-09-19 00:33:00,50.4,49.9,29.94,NNE,15,3.0,4.0,98,0.00,,,0.00,Wunderground v.1.15,2013-09-19 07:33:00,
2013-09-19 00:38:00,50.6,50.1,29.94,NNE,15,3.0,4.0,98,0.00,,,0.00,Wunderground v.1.15,2013-09-19 07:38:00,
2013-09-19 00:44:00,50.6,50.1,29.94,NNE,15,2.0,3.0,98,0.00,,,0.00,Wunderground v.1.15,2013-09-19 07:44:00,
2013-09-19 00:50:00,50.5,50.0,29.94,NNE,15,2.0,2.0,98,0.00,,,0.00,Wunderground v.1.15,2013-09-19 07:50:00,
2013-09-19 00:56:00,50.3,49.8,29.94,NNE,15,1.0,2.0,98,0.00,,,0.00,Wunderground v.1.15,2013-09-19 07:56:00,
2013-09-19 01:02:00,50.2,49.7,29.93,NNE,15,1.0,4.0,98,0.00,,,0.00,Wunderground v.1.15,2013-09-19 08:02:00,
2013-09-19 01:08:00,50.3,49.8,29.93,NNE,15,1.0,4.0,98,0.00,,,0.00,Wunderground v.1.15,2013-09-19 08:08:00,
2013-09-19 01:13:00,50.4,49.9,29.93,NNE,15,2.0,4.0,98,0.00,,,0.00,Wunderground v.1.15,2013-09-19 08:13:00,
2013-09-19 01:19:00,50.2,49.7,29.93,NNE,15,2.0,4.0,98,0.00,,,0.00,Wunderground v.1.15,2013-09-19 08:19:00,
2013-09-19 01:25:00,50.3,49.8,29.93,NNE,23,3.0,4.0,98,0.00,,,0.00,Wunderground v.1.15,2013-09-19 08:25:00,
2013-09-19 01:30:00,50.5,50.0,29.93,NNE,26,4.0,5.0,98,0.00,,,0.00,Wunderground v.1.15,2013-09-19 08:30:00,
2013-09-19 01:36:00,50.9,50.4,29.93,NNE,32,4.0,5.0,98,0.00,,,0.00,Wunderground v.1.15,2013-09-19 08:36:00,
2013-09-19 01:42:00,50.7,50.2,29.93,NNE,32,4.0,4.0,98,0.00,,,0.00,Wunderground v.1.15,2013-09-19 08:42:00,
2013-09-19 01:48:00,50.3,49.8,29.93,NNE,32,3.0,4.0,98,0.00,,,0.00,Wunderground v.1.15,2013-09-19 08:48:00,
2013-09-19 01:54:00,50.5,50.0,29.93,NE,35,3.0,5.0,98,0.00,,,0.00,Wunderground v.1.15,2013-09-19 08:54:00,
2013-09-19 02:00:00,50.8,50.3,29.93,NE,40,4.0,5.0,98,0.00,,,0.00,Wunderground v.1.15,2013-09-19 09:00:00,
2013-09-19 02:05:00,50.9,50.4,29.93,NE,40,5.0,5.0,98,0.00,,,0.00,Wunderground v.1.15,2013-09-19 09:05:00,
2013-09-19 02:11:00,51.0,50.5,29.92,NE,42,4.0,6.0,98,0.00,,,0.00,Wunderground v.1.15,2013-09-19 09:11:00,
2013-09-19 02:17:00,51.4,51.1,29.92,ENE,57,5.0,6.0,99,0.00,,,0.00,Wunderground v.1.15,2013-09-19 09:17:00,
2013-09-19 02:23:00,51.6,51.1,29.92,ENE,59,6.0,8.0,98,0.00,,,0.00,Wunderground v.1.15,2013-09-19 09:23:00,
2013-09-19 02:29:00,51.4,50.9,29.92,ENE,59,4.0,8.0,98,0.00,,,0.00,Wunderground v.1.15,2013-09-19 09:29:00,
2013-09-19 02:34:00,51.2,50.7,29.92,ENE,59,3.0,4.0,98,0.00,,,0.00,Wunderground v.1.15,2013-09-19 09:34:00,
2013-09-19 02:40:00,51.2,50.7,29.92,ENE,59,2.0,5.0,98,0.00,,,0.00,Wunderground v.1.15,2013-09-19 09:40:00,
2013-09-19 02:46:00,51.2,50.7,29.92,ENE,59,3.0,5.0,98,0.00,,,0.00,Wunderground v.1.15,2013-09-19 09:46:00,
2013-09-19 02:52:00,51.3,50.8,29.92,ENE,59,2.0,4.0,98,0.00,,,0.00,Wunderground v.1.15,2013-09-19 09:52:00,
2013-09-19 02:58:00,51.4,50.9,29.92,ENE,59,3.0,4.0,98,0.00,,,0.00,Wunderground v.1.15,2013-09-19 09:58:00,
2013-09-19 03:03:00,51.4,50.9,29.92,ENE,59,2.0,4.0,98,0.00,,,0.00,Wunderground v.1.15,2013-09-19 10:03:00,
2013-09-19 03:08:00,51.4,50.9,29.92,ENE,59,2.0,4.0,98,0.00,,,0.00,Wunderground v.1.15,2013-09-19 10:08:00,
2013-09-19 03:14:00,51.2,50.7,29.92,ENE,59,3.0,4.0,98,0.00,,,0.00,Wunderground v.1.15,2013-09-19 10:14:00,
2013-09-19 03:20:00,51.1,50.6,29.92,ENE,59,3.0,4.0,98,0.00,,,0.01,Wunderground v.1.15,2013-09-19 10:20:00,
2013-09-19 03:26:00,51.0,50.5,29.92,ENE,59,3.0,4.0,98,0.00,,,0.01,Wunderground v.1.15,2013-09-19 10:26:00,
2013-09-19 03:31:00,50.7,49.9,29.91,ENE,59,2.0,4.0,97,0.00,,,0.01,Wunderground v.1.15,2013-09-19 10:31:00,
2013-09-19 03:37:00,50.6,50.1,29.91,ENE,59,2.0,4.0,98,0.00,,,0.01,Wunderground v.1.15,2013-09-19 10:37:00,
2013-09-19 03:43:00,50.6,50.1,29.91,ENE,59,2.0,4.0,98,0.00,,,0.01,Wunderground v.1.15,2013-09-19 10:43:00,
2013-09-19 03:49:00,50.5,50.0,29.91,ENE,59,2.0,4.0,98,0.00,,,0.01,Wunderground v.1.15,2013-09-19 10:49:00,
2013-09-19 03:55:00,50.6,50.1,29.91,ENE,59,2.0,4.0,98,0.00,,,0.01,Wunderground v.1.15,2013-09-19 10:55:00,
2013-09-19 04:01:00,50.3,49.5,29.91,ENE,59,1.0,4.0,97,0.00,,,0.01,Wunderground v.1.15,2013-09-19 11:01:00,
2013-09-19 04:06:00,49.9,49.1,29.91,ENE,59,0.0,4.0,97,0.00,,,0.01,Wunderground v.1.15,2013-09-19 11:06:00,
2013-09-19 04:12:00,49.5,48.7,29.90,ENE,59,0.0,4.0,97,0.00,,,0.01,Wunderground v.1.15,2013-09-19 11:12:00,
2013-09-19 04:18:00,49.4,48.9,29.90,ENE,59,0.0,4.0,98,0.00,,,0.01,Wunderground v.1.15,2013-09-19 11:18:00,
2013-09-19 04:24:00,49.2,48.7,29.90,ENE,59,0.0,4.0,98,0.00,,,0.01,Wunderground v.1.15,2013-09-19 11:24:00,
2013-09-19 04:30:00,49.1,48.3,29.90,ENE,59,0.0,4.0,97,0.00,,,0.01,Wunderground v.1.15,2013-09-19 11:30:00,
2013-09-19 04:35:00,49.0,48.5,29.90,ENE,59,1.0,4.0,98,0.00,,,0.01,Wunderground v.1.15,2013-09-19 11:35:00,
2013-09-19 04:41:00,49.1,48.6,29.90,ENE,59,2.0,4.0,98,0.00,,,0.01,Wunderground v.1.15,2013-09-19 11:41:00,
2013-09-19 04:47:00,49.1,48.6,29.90,ENE,59,1.0,4.0,98,0.00,,,0.01,Wunderground v.1.15,2013-09-19 11:47:00,
2013-09-19 04:53:00,49.1,48.6,29.89,ENE,59,1.0,4.0,98,0.00,,,0.01,Wunderground v.1.15,2013-09-19 11:53:00,
2013-09-19 04:58:00,49.1,48.6,29.89,ENE,59,0.0,4.0,98,0.00,,,0.01,Wunderground v.1.15,2013-09-19 11:58:00,
2013-09-19 05:04:00,49.0,48.5,29.89,ENE,59,0.0,4.0,98,0.00,,,0.01,Wunderground v.1.15,2013-09-19 12:04:00,
2013-09-19 05:09:00,49.0,48.5,29.89,ENE,59,1.0,4.0,98,0.00,,,0.01,Wunderground v.1.15,2013-09-19 12:09:00,
2013-09-19 05:15:00,48.7,47.9,29.89,ENE,59,0.0,4.0,97,0.00,,,0.01,Wunderground v.1.15,2013-09-19 12:15:00,
2013-09-19 05:21:00,48.5,48.0,29.89,ENE,59,0.0,4.0,98,0.00,,,0.01,Wunderground v.1.15,2013-09-19 12:21:00,
2013-09-19 05:27:00,48.5,48.0,29.89,ENE,59,0.0,4.0,98,0.00,,,0.01,Wunderground v.1.15,2013-09-19 12:27:00,
2013-09-19 05:32:00,48.6,48.1,29.89,ENE,59,0.0,4.0,98,0.00,,,0.01,Wunderground v.1.15,2013-09-19 12:32:00,
2013-09-19 05:38:00,48.7,48.2,29.89,ENE,59,1.0,4.0,98,0.00,,,0.01,Wunderground v.1.15,2013-09-19 12:38:00,
2013-09-19 05:44:00,48.6,48.1,29.89,ENE,59,1.0,4.0,98,0.00,,,0.01,Wunderground v.1.15,2013-09-19 12:44:00,
2013-09-19 05:50:00,48.5,48.0,29.89,ENE,59,0.0,4.0,98,0.00,,,0.01,Wunderground v.1.15,2013-09-19 12:50:00,
2013-09-19 05:56:00,48.6,48.1,29.89,ENE,59,1.0,4.0,98,0.00,,,0.01,Wunderground v.1.15,2013-09-19 12:56:00,
2013-09-19 06:02:00,48.4,47.9,29.89,ENE,59,1.0,4.0,98,0.00,,,0.01,Wunderground v.1.15,2013-09-19 13:02:00,
2013-09-19 06:07:00,48.3,47.8,29.89,ENE,59,1.0,4.0,98,0.00,,,0.01,Wunderground v.1.15,2013-09-19 13:07:00,
2013-09-19 06:13:00,48.2,47.7,29.89,ENE,59,0.0,4.0,98,0.00,,,0.01,Wunderground v.1.15,2013-09-19 13:13:00,
2013-09-19 06:19:00,48.1,47.6,29.89,ENE,59,0.0,4.0,98,0.00,,,0.01,Wunderground v.1.15,2013-09-19 13:19:00,
2013-09-19 06:25:00,47.8,47.0,29.89,ENE,59,1.0,4.0,97,0.00,,,0.01,Wunderground v.1.15,2013-09-19 13:25:00,
2013-09-19 06:31:00,47.5,47.0,29.89,ENE,59,2.0,4.0,98,0.00,,,0.01,Wunderground v.1.15,2013-09-19 13:31:00,
2013-09-19 06:36:00,47.5,47.0,29.89,ENE,59,2.0,4.0,98,0.00,,,0.01,Wunderground v.1.15,2013-09-19 13:36:00,
2013-09-19 06:42:00,47.5,47.0,29.89,ENE,59,1.0,4.0,98,0.00,,,0.01,Wunderground v.1.15,2013-09-19 13:42:00,
2013-09-19 06:48:00,47.1,46.3,29.89,ENE,59,0.0,4.0,97,0.00,,,0.01,Wunderground v.1.15,2013-09-19 13:48:00,
2013-09-19 06:53:00,47.0,46.5,29.89,ENE,59,0.0,4.0,98,0.00,,,0.01,Wunderground v.1.15,2013-09-19 13:53:00,
2013-09-19 06:59:00,47.1,46.6,29.89,ENE,59,0.0,4.0,98,0.00,,,0.01,Wunderground v.1.15,2013-09-19 13:59:00,
2013-09-19 07:05:00,47.3,46.8,29.89,ENE,59,0.0,4.0,98,0.00,,,0.01,Wunderground v.1.15,2013-09-19 14:05:00,
2013-09-19 07:10:00,47.2,46.7,29.89,ENE,59,0.0,4.0,98,0.00,,,0.01,Wunderground v.1.15,2013-09-19 14:10:00,
2013-09-19 07:16:00,47.3,46.8,29.89,ENE,59,0.0,4.0,98,0.00,,,0.01,Wunderground v.1.15,2013-09-19 14:16:00,
2013-09-19 07:22:00,47.5,47.0,29.89,ENE,59,0.0,4.0,98,0.00,,,0.01,Wunderground v.1.15,2013-09-19 14:22:00,
2013-09-19 07:28:00,47.6,47.1,29.90,ENE,59,0.0,4.0,98,0.00,,,0.01,Wunderground v.1.15,2013-09-19 14:28:00,
2013-09-19 07:34:00,47.9,47.4,29.90,ENE,59,0.0,4.0,98,0.00,,,0.01,Wunderground v.1.15,2013-09-19 14:34:00,
2013-09-19 07:40:00,48.3,47.8,29.90,ENE,59,0.0,4.0,98,0.00,,,0.01,Wunderground v.1.15,2013-09-19 14:40:00,
2013-09-19 07:45:00,48.9,48.6,29.89,ENE,59,0.0,4.0,99,0.00,,,0.01,Wunderground v.1.15,2013-09-19 14:45:00,
2013-09-19 07:51:00,49.6,49.3,29.89,ENE,59,0.0,4.0,99,0.00,,,0.01,Wunderground v.1.15,2013-09-19 14:51:00,
2013-09-19 07:57:00,50.4,50.1,29.90,ENE,59,0.0,4.0,99,0.00,,,0.01,Wunderground v.1.15,2013-09-19 14:57:00,
2013-09-19 08:03:00,51.4,51.1,29.89,ENE,59,0.0,4.0,99,0.00,,,0.01,Wunderground v.1.15,2013-09-19 15:03:00,
2013-09-19 08:09:00,52.5,52.5,29.90,ENE,59,0.0,4.0,100,0.00,,,0.01,Wunderground v.1.15,2013-09-19 15:09:00,
2013-09-19 08:15:00,52.9,52.4,29.90,ENE,59,0.0,4.0,98,0.00,,,0.01,Wunderground v.1.15,2013-09-19 15:15:00,
2013-09-19 08:21:00,53.5,52.9,29.89,ENE,59,0.0,4.0,98,0.00,,,0.01,Wunderground v.1.15,2013-09-19 15:21:00,
2013-09-19 08:26:00,53.6,53.0,29.89,ENE,59,0.0,4.0,98,0.00,,,0.01,Wunderground v.1.15,2013-09-19 15:26:00,
2013-09-19 08:32:00,53.4,52.6,29.89,ENE,59,0.0,4.0,97,0.00,,,0.01,Wunderground v.1.15,2013-09-19 15:32:00,
2013-09-19 08:38:00,53.1,52.6,29.89,ENE,59,0.0,4.0,98,0.00,,,0.01,Wunderground v.1.15,2013-09-19 15:38:00,
2013-09-19 08:44:00,53.1,52.6,29.89,ENE,59,1.0,4.0,98,0.00,,,0.01,Wunderground v.1.15,2013-09-19 15:44:00,
2013-09-19 08:50:00,52.9,52.1,29.89,ENE,59,0.0,4.0,97,0.00,,,0.01,Wunderground v.1.15,2013-09-19 15:50:00,
2013-09-19 08:55:00,52.5,51.7,29.90,ENE,59,0.0,4.0,97,0.00,,,0.01,Wunderground v.1.15,2013-09-19 15:55:00,
2013-09-19 09:01:00,52.4,51.6,29.90,ENE,59,1.0,4.0,97,0.00,,,0.01,Wunderground v.1.15,2013-09-19 16:01:00,
2013-09-19 09:06:00,52.6,52.1,29.89,ENE,59,1.0,4.0,98,0.00,,,0.01,Wunderground v.1.15,2013-09-19 16:06:00,
2013-09-19 09:11:00,52.5,51.7,29.89,ENE,59,1.0,4.0,97,0.00,,,0.01,Wunderground v.1.15,2013-09-19 16:11:00,
2013-09-19 09:17:00,52.5,51.7,29.90,ENE,59,2.0,4.0,97,0.00,,,0.01,Wunderground v.1.15,2013-09-19 16:17:00,
2013-09-19 09:23:00,52.7,51.9,29.89,ENE,59,2.0,4.0,97,0.00,,,0.01,Wunderground v.1.15,2013-09-19 16:23:00,
2013-09-19 09:28:00,53.0,52.5,29.89,ENE,59,2.0,4.0,98,0.00,,,0.01,Wunderground v.1.15,2013-09-19 16:28:00,
2013-09-19 09:34:00,53.3,52.5,29.89,ENE,59,2.0,4.0,97,0.00,,,0.01,Wunderground v.1.15,2013-09-19 16:34:00,
2013-09-19 09:39:00,53.3,52.5,29.89,ENE,59,2.0,4.0,97,0.00,,,0.01,Wunderground v.1.15,2013-09-19 16:39:00,
2013-09-19 09:45:00,53.4,52.6,29.90,ENE,59,2.0,4.0,97,0.00,,,0.01,Wunderground v.1.15,2013-09-19 16:45:00,
2013-09-19 09:51:00,53.3,52.5,29.89,ENE,59,3.0,4.0,97,0.00,,,0.01,Wunderground v.1.15,2013-09-19 16:51:00,
2013-09-19 09:57:00,53.4,52.6,29.89,ENE,66,3.0,7.0,97,0.00,,,0.01,Wunderground v.1.15,2013-09-19 16:57:00,
2013-09-19 10:03:00,53.7,52.6,29.89,ENE,72,3.0,4.0,96,0.00,,,0.01,Wunderground v.1.15,2013-09-19 17:03:00,
2013-09-19 10:09:00,53.7,52.6,29.90,East,94,4.0,5.0,96,0.00,,,0.01,Wunderground v.1.15,2013-09-19 17:09:00,
2013-09-19 10:14:00,53.8,52.4,29.90,East,97,4.0,5.0,95,0.00,,,0.01,Wunderground v.1.15,2013-09-19 17:14:00,
2013-09-19 10:20:00,53.9,52.2,29.90,ESE,104,4.0,4.0,94,0.00,,,0.01,Wunderground v.1.15,2013-09-19 17:20:00,
2013-09-19 10:26:00,54.0,52.3,29.90,ESE,109,4.0,5.0,94,0.00,,,0.01,Wunderground v.1.15,2013-09-19 17:26:00,
2013-09-19 10:32:00,54.2,52.2,29.90,ESE,111,4.0,4.0,93,0.00,,,0.01,Wunderground v.1.15,2013-09-19 17:32:00,
2013-09-19 10:38:00,54.4,52.4,29.90,ESE,118,4.0,7.0,93,0.00,,,0.01,Wunderground v.1.15,2013-09-19 17:38:00,
2013-09-19 10:43:00,54.5,52.5,29.90,ESE,123,4.0,5.0,93,0.00,,,0.01,Wunderground v.1.15,2013-09-19 17:43:00,
2013-09-19 10:48:00,54.3,52.3,29.90,South,172,5.0,7.0,93,0.00,,,0.01,Wunderground v.1.15,2013-09-19 17:48:00,
2013-09-19 10:54:00,54.3,52.3,29.91,South,175,5.0,6.0,93,0.00,,,0.01,Wunderground v.1.15,2013-09-19 17:54:00,
2013-09-19 11:00:00,54.4,52.4,29.90,South,176,5.0,5.0,93,0.00,,,0.01,Wunderground v.1.15,2013-09-19 18:00:00,
2013-09-19 11:06:00,54.5,52.5,29.90,South,178,5.0,6.0,93,0.00,,,0.01,Wunderground v.1.15,2013-09-19 18:06:00,
2013-09-19 11:12:00,54.6,52.9,29.90,South,180,5.0,7.0,94,0.00,,,0.01,Wunderground v.1.15,2013-09-19 18:12:00,
2013-09-19 11:18:00,54.7,53.0,29.90,SSW,198,6.0,9.0,94,0.00,,,0.01,Wunderground v.1.15,2013-09-19 18:18:00,
2013-09-19 11:24:00,54.8,52.8,29.90,SSW,196,6.0,7.0,93,0.00,,,0.01,Wunderground v.1.15,2013-09-19 18:24:00,
2013-09-19 11:30:00,54.6,52.6,29.90,SSW,192,7.0,8.0,93,0.00,,,0.01,Wunderground v.1.15,2013-09-19 18:30:00,
2013-09-19 11:35:00,54.8,52.8,29.90,SSW,194,7.0,8.0,93,0.00,,,0.01,Wunderground v.1.15,2013-09-19 18:35:00,
2013-09-19 11:41:00,54.8,52.8,29.90,SSW,196,7.0,10.0,93,0.00,,,0.01,Wunderground v.1.15,2013-09-19 18:41:00,
2013-09-19 11:47:00,54.9,52.9,29.90,SSW,196,7.0,10.0,93,0.00,,,0.01,Wunderground v.1.15,2013-09-19 18:47:00,
2013-09-19 11:53:00,55.1,52.8,29.90,SSW,203,7.0,8.0,92,0.00,,,0.01,Wunderground v.1.15,2013-09-19 18:53:00,
2013-09-19 11:58:00,55.1,52.8,29.90,SSW,204,7.0,8.0,92,0.00,,,0.01,Wunderground v.1.15,2013-09-19 18:58:00,
2013-09-19 12:03:00,55.1,52.8,29.90,SSW,204,6.0,9.0,92,0.00,,,0.01,Wunderground v.1.15,2013-09-19 19:03:00,
2013-09-19 12:09:00,55.0,52.7,29.90,SSW,207,6.0,9.0,92,0.00,,,0.01,Wunderground v.1.15,2013-09-19 19:09:00,
2013-09-19 12:15:00,54.9,52.6,29.90,SSW,207,7.0,10.0,92,0.00,,,0.01,Wunderground v.1.15,2013-09-19 19:15:00,
2013-09-19 12:21:00,55.1,53.1,29.90,SW,227,7.0,9.0,93,0.00,,,0.01,Wunderground v.1.15,2013-09-19 19:21:00,
2013-09-19 12:27:00,55.0,52.7,29.90,SW,214,8.0,9.0,92,0.00,,,0.01,Wunderground v.1.15,2013-09-19 19:27:00,
2013-09-19 12:33:00,54.9,52.9,29.90,SSW,211,8.0,9.0,93,0.00,,,0.01,Wunderground v.1.15,2013-09-19 19:33:00,
2013-09-19 12:39:00,55.1,53.1,29.90,SSW,205,7.0,11.0,93,0.00,,,0.01,Wunderground v.1.15,2013-09-19 19:39:00,
2013-09-19 12:44:00,54.9,52.9,29.90,SSW,207,7.0,11.0,93,0.00,,,0.01,Wunderground v.1.15,2013-09-19 19:44:00,
2013-09-19 12:50:00,54.8,52.8,29.90,SSW,209,7.0,8.0,93,0.00,,,0.01,Wunderground v.1.15,2013-09-19 19:50:00,
2013-09-19 12:56:00,54.4,52.7,29.90,SSW,207,7.0,8.0,94,0.00,,,0.01,Wunderground v.1.15,2013-09-19 19:56:00,
2013-09-19 13:02:00,54.7,53.3,29.90,SSW,203,6.0,7.0,95,0.00,,,0.01,Wunderground v.1.15,2013-09-19 20:02:00,
2013-09-19 13:08:00,54.6,53.2,29.90,SSW,196,6.0,8.0,95,0.00,,,0.01,Wunderground v.1.15,2013-09-19 20:08:00,
2013-09-19 13:13:00,54.6,53.5,29.90,SSW,196,7.0,9.0,96,0.00,,,0.01,Wunderground v.1.15,2013-09-19 20:13:00,
2013-09-19 13:19:00,55.0,53.9,29.90,SSW,196,7.0,9.0,96,0.00,,,0.01,Wunderground v.1.15,2013-09-19 20:19:00,
2013-09-19 13:25:00,55.5,54.4,29.90,SSW,202,6.0,7.0,96,0.00,,,0.01,Wunderground v.1.15,2013-09-19 20:25:00,
2013-09-19 13:31:00,56.0,55.2,29.89,SSW,192,6.0,7.0,97,0.00,,,0.01,Wunderground v.1.15,2013-09-19 20:31:00,
2013-09-19 13:37:00,55.9,54.8,29.89,SSW,194,6.0,8.0,96,0.00,,,0.01,Wunderground v.1.15,2013-09-19 20:37:00,
2013-09-19 13:43:00,56.3,55.2,29.89,SSW,202,7.0,8.0,96,0.00,,,0.01,Wunderground v.1.15,2013-09-19 20:43:00,
2013-09-19 13:48:00,56.3,55.2,29.89,SSW,200,6.0,9.0,96,0.00,,,0.01,Wunderground v.1.15,2013-09-19 20:48:00,
2013-09-19 13:54:00,56.4,55.6,29.89,SSW,201,7.0,7.0,97,0.00,,,0.01,Wunderground v.1.15,2013-09-19 20:54:00,
2013-09-19 13:59:00,56.5,55.7,29.89,SSW,200,6.0,7.0,97,0.00,,,0.01,Wunderground v.1.15,2013-09-19 20:59:00,
2013-09-19 14:05:00,56.8,56.0,29.89,SSW,200,6.0,6.0,97,0.00,,,0.01,Wunderground v.1.15,2013-09-19 21:05:00,
2013-09-19 14:11:00,57.1,56.3,29.89,SSW,200,5.0,7.0,97,0.00,,,0.01,Wunderground v.1.15,2013-09-19 21:11:00,
2013-09-19 14:17:00,57.4,56.6,29.89,SSW,198,5.0,7.0,97,0.00,,,0.01,Wunderground v.1.15,2013-09-19 21:17:00,
2013-09-19 14:23:00,57.3,56.5,29.88,SSW,199,6.0,7.0,97,0.00,,,0.01,Wunderground v.1.15,2013-09-19 21:23:00,
2013-09-19 14:28:00,57.6,56.8,29.88,SSW,198,6.0,7.0,97,0.00,,,0.01,Wunderground v.1.15,2013-09-19 21:28:00,
2013-09-19 14:34:00,57.5,56.7,29.88,SSW,202,6.0,7.0,97,0.00,,,0.01,Wunderground v.1.15,2013-09-19 21:34:00,
2013-09-19 14:40:00,57.6,56.5,29.88,SSW,200,6.0,6.0,96,0.00,,,0.01,Wunderground v.1.15,2013-09-19 21:40:00,
2013-09-19 14:46:00,57.9,57.1,29.88,SSW,200,6.0,6.0,97,0.00,,,0.01,Wunderground v.1.15,2013-09-19 21:46:00,
2013-09-19 14:52:00,57.9,57.1,29.88,SSW,200,5.0,6.0,97,0.00,,,0.01,Wunderground v.1.15,2013-09-19 21:52:00,
2013-09-19 14:58:00,58.2,57.4,29.87,SSW,200,5.0,6.0,97,0.00,,,0.01,Wunderground v.1.15,2013-09-19 21:58:00,
2013-09-19 15:03:00,58.2,57.1,29.87,SSW,200,5.0,5.0,96,0.00,,,0.01,Wunderground v.1.15,2013-09-19 22:03:00,
2013-09-19 15:09:00,57.9,57.1,29.87,SSW,200,5.0,6.0,97,0.00,,,0.01,Wunderground v.1.15,2013-09-19 22:09:00,
2013-09-19 15:15:00,57.9,57.1,29.87,SSW,200,4.0,6.0,97,0.00,,,0.01,Wunderground v.1.15,2013-09-19 22:15:00,
2013-09-19 15:21:00,57.9,56.8,29.87,SSW,200,5.0,6.0,96,0.00,,,0.01,Wunderground v.1.15,2013-09-19 22:21:00,
2013-09-19 15:27:00,57.8,56.7,29.87,SSW,200,6.0,7.0,96,0.00,,,0.01,Wunderground v.1.15,2013-09-19 22:27:00,
2013-09-19 15:33:00,58.5,57.4,29.87,SSW,200,5.0,6.0,96,0.00,,,0.01,Wunderground v.1.15,2013-09-19 22:33:00,
2013-09-19 15:38:00,58.5,57.1,29.87,SSW,200,5.0,7.0,95,0.00,,,0.01,Wunderground v.1.15,2013-09-19 22:38:00,
2013-09-19 15:43:00,58.6,57.2,29.86,SSW,200,5.0,7.0,95,0.00,,,0.01,Wunderground v.1.15,2013-09-19 22:43:00,
2013-09-19 15:49:00,58.9,57.5,29.86,SSW,200,5.0,7.0,95,0.00,,,0.01,Wunderground v.1.15,2013-09-19 22:49:00,
2013-09-19 15:55:00,58.8,57.1,29.86,SSW,200,5.0,5.0,94,0.00,,,0.01,Wunderground v.1.15,2013-09-19 22:55:00,
2013-09-19 16:01:00,59.1,57.4,29.86,SSW,201,5.0,5.0,94,0.00,,,0.01,Wunderground v.1.15,2013-09-19 23:01:00,
2013-09-19 16:07:00,59.3,57.6,29.86,SSW,200,5.0,7.0,94,0.00,,,0.01,Wunderground v.1.15,2013-09-19 23:07:00,
2013-09-19 16:13:00,59.2,57.2,29.86,SSW,200,5.0,7.0,93,0.00,,,0.01,Wunderground v.1.15,2013-09-19 23:13:00,
2013-09-19 16:18:00,59.2,57.5,29.86,SSW,200,5.0,7.0,94,0.00,,,0.01,Wunderground v.1.15,2013-09-19 23:18:00,
2013-09-19 16:24:00,59.4,57.4,29.86,SSW,201,5.0,5.0,93,0.00,,,0.01,Wunderground v.1.15,2013-09-19 23:24:00,
2013-09-19 16:30:00,59.4,57.4,29.86,SSW,201,5.0,6.0,93,0.00,,,0.01,Wunderground v.1.15,2013-09-19 23:30:00,
2013-09-19 16:35:00,59.4,57.4,29.85,SSW,201,5.0,6.0,93,0.00,,,0.01,Wunderground v.1.15,2013-09-19 23:35:00,
2013-09-19 16:41:00,59.3,57.3,29.85,SSW,201,5.0,6.0,93,0.00,,,0.01,Wunderground v.1.15,2013-09-19 23:41:00,
2013-09-19 16:47:00,59.4,57.7,29.85,SSW,201,5.0,7.0,94,0.00,,,0.01,Wunderground v.1.15,2013-09-19 23:47:00,
2013-09-19 16:53:00,59.7,57.7,29.85,SSW,200,4.0,7.0,93,0.00,,,0.01,Wunderground v.1.15,2013-09-19 23:53:00,
2013-09-19 16:59:00,59.6,57.6,29.84,SSW,200,5.0,7.0,93,0.00,,,0.01,Wunderground v.1.15,2013-09-19 23:59:00,
2013-09-19 17:04:00,59.6,57.6,29.84,SSW,201,4.0,5.0,93,0.00,,,0.01,Wunderground v.1.15,2013-09-20 00:04:00,
2013-09-19 17:10:00,59.5,57.5,29.84,SSW,200,5.0,5.0,93,0.00,,,0.01,Wunderground v.1.15,2013-09-20 00:10:00,
2013-09-19 17:16:00,59.8,57.8,29.84,SSW,201,5.0,5.0,93,0.00,,,0.01,Wunderground v.1.15,2013-09-20 00:16:00,
2013-09-19 17:22:00,59.8,57.8,29.84,SSW,201,4.0,4.0,93,0.00,,,0.01,Wunderground v.1.15,2013-09-20 00:22:00,
2013-09-19 17:28:00,60.0,57.7,29.84,SSW,201,4.0,5.0,92,0.00,,,0.01,Wunderground v.1.15,2013-09-20 00:28:00,
2013-09-19 17:34:00,60.0,57.4,29.84,SSW,201,3.0,4.0,91,0.00,,,0.01,Wunderground v.1.15,2013-09-20 00:34:00,
2013-09-19 17:40:00,60.5,57.2,29.83,SSW,200,3.0,3.0,89,0.00,,,0.01,Wunderground v.1.15,2013-09-20 00:40:00,
2013-09-19 17:46:00,61.2,57.6,29.83,SSW,200,3.0,4.0,88,0.00,,,0.01,Wunderground v.1.15,2013-09-20 00:46:00,
2013-09-19 17:52:00,61.5,57.6,29.83,SSW,200,2.0,4.0,87,0.00,,,0.01,Wunderground v.1.15,2013-09-20 00:52:00,
2013-09-19 17:57:00,61.3,57.1,29.83,SSW,200,2.0,4.0,86,0.00,,,0.01,Wunderground v.1.15,2013-09-20 00:57:00,
2013-09-19 18:03:00,61.1,56.9,29.83,SSW,201,3.0,4.0,86,0.00,,,0.01,Wunderground v.1.15,2013-09-20 01:03:00,
2013-09-19 18:08:00,60.7,56.8,29.83,SSW,200,3.0,4.0,87,0.00,,,0.01,Wunderground v.1.15,2013-09-20 01:08:00,
2013-09-19 18:14:00,60.3,56.4,29.83,SSW,200,3.0,4.0,87,0.00,,,0.01,Wunderground v.1.15,2013-09-20 01:14:00,
2013-09-19 18:20:00,60.3,56.4,29.83,SSW,200,2.0,4.0,87,0.00,,,0.01,Wunderground v.1.15,2013-09-20 01:20:00,
2013-09-19 18:26:00,60.1,55.6,29.83,SSW,200,3.0,4.0,85,0.00,,,0.01,Wunderground v.1.15,2013-09-20 01:26:00,
2013-09-19 18:31:00,60.2,55.3,29.83,SSW,200,2.0,4.0,84,0.00,,,0.01,Wunderground v.1.15,2013-09-20 01:31:00,
2013-09-19 18:37:00,60.6,55.4,29.83,SSW,200,2.0,4.0,83,0.00,,,0.01,Wunderground v.1.15,2013-09-20 01:37:00,
2013-09-19 18:43:00,60.5,55.3,29.82,SSW,201,2.0,4.0,83,0.00,,,0.01,Wunderground v.1.15,2013-09-20 01:43:00,
2013-09-19 18:49:00,60.5,55.3,29.82,SSW,201,2.0,4.0,83,0.00,,,0.01,Wunderground v.1.15,2013-09-20 01:49:00,
2013-09-19 18:54:00,60.7,55.8,29.82,SSW,201,2.0,4.0,84,0.00,,,0.01,Wunderground v.1.15,2013-09-20 01:54:00,
2013-09-19 19:00:00,61.1,56.2,29.82,SSW,201,1.0,4.0,84,0.00,,,0.01,Wunderground v.1.15,2013-09-20 02:00:00,
2013-09-19 19:06:00,61.1,55.9,29.82,SSW,201,1.0,4.0,83,0.00,,,0.01,Wunderground v.1.15,2013-09-20 02:06:00,
2013-09-19 19:11:00,60.8,55.6,29.82,SSW,201,1.0,4.0,83,0.00,,,0.01,Wunderground v.1.15,2013-09-20 02:11:00,
2013-09-19 19:17:00,60.4,55.2,29.81,SSW,201,2.0,4.0,83,0.00,,,0.01,Wunderground v.1.15,2013-09-20 02:17:00,
2013-09-19 19:23:00,60.0,54.5,29.81,SSW,201,2.0,4.0,82,0.00,,,0.01,Wunderground v.1.15,2013-09-20 02:23:00,
2013-09-19 19:29:00,59.7,54.5,29.81,SSW,201,1.0,4.0,83,0.00,,,0.01,Wunderground v.1.15,2013-09-20 02:29:00,
2013-09-19 19:35:00,59.4,54.2,29.81,SSW,201,1.0,4.0,83,0.00,,,0.01,Wunderground v.1.15,2013-09-20 02:35:00,
2013-09-19 19:40:00,59.1,53.9,29.81,SSW,201,1.0,1.0,83,0.00,,,0.01,Wunderground v.1.15,2013-09-20 02:40:00,
2013-09-19 19:46:00,58.7,53.5,29.81,SSW,201,0.0,4.0,83,0.00,,,0.01,Wunderground v.1.15,2013-09-20 02:46:00,
2013-09-19 19:52:00,58.4,52.9,29.81,SSW,201,0.0,4.0,82,0.00,,,0.01,Wunderground v.1.15,2013-09-20 02:52:00,
2013-09-19 19:57:00,58.0,52.5,29.81,SSW,201,0.0,4.0,82,0.00,,,0.01,Wunderground v.1.15,2013-09-20 02:57:00,
2013-09-19 20:03:00,57.6,52.1,29.81,SSW,201,0.0,4.0,82,0.00,,,0.01,Wunderground v.1.15,2013-09-20 03:03:00,
2013-09-19 20:08:00,57.3,51.5,29.81,SSW,201,0.0,4.0,81,0.00,,,0.01,Wunderground v.1.15,2013-09-20 03:08:00,
2013-09-19 20:13:00,57.0,51.2,29.81,SSW,201,0.0,4.0,81,0.00,,,0.01,Wunderground v.1.15,2013-09-20 03:13:00,
2013-09-19 20:19:00,56.7,50.6,29.81,SSW,201,1.0,4.0,80,0.00,,,0.01,Wunderground v.1.15,2013-09-20 03:19:00,
2013-09-19 20:25:00,57.0,51.9,29.82,SSW,201,1.0,4.0,83,0.00,,,0.01,Wunderground v.1.15,2013-09-20 03:25:00,
2013-09-19 20:31:00,56.7,52.2,29.82,SSW,201,3.0,4.0,85,0.00,,,0.01,Wunderground v.1.15,2013-09-20 03:31:00,
2013-09-19 20:37:00,56.1,52.3,29.82,SSW,200,3.0,4.0,87,0.00,,,0.01,Wunderground v.1.15,2013-09-20 03:37:00,
2013-09-19 20:42:00,55.7,52.2,29.82,SSW,200,3.0,4.0,88,0.00,,,0.01,Wunderground v.1.15,2013-09-20 03:42:00,
2013-09-19 20:48:00,55.4,52.2,29.82,SSW,200,3.0,4.0,89,0.00,,,0.01,Wunderground v.1.15,2013-09-20 03:48:00,
2013-09-19 20:54:00,55.2,52.3,29.82,SSW,200,3.0,4.0,90,0.00,,,0.01,Wunderground v.1.15,2013-09-20 03:54:00,
2013-09-19 21:00:00,55.1,52.5,29.82,SSW,200,4.0,5.0,91,0.00,,,0.01,Wunderground v.1.15,2013-09-20 04:00:00,
2013-09-19 21:01:00,55.1,52.5,29.82,SSW,200,4.0,5.0,91,0.00,,,0.01,Wunderground v.1.15,2013-09-20 04:01:00,
2013-09-19 21:03:00,55.1,52.5,29.82,SSW,200,5.0,6.0,91,0.00,,,0.01,Wunderground v.1.15,2013-09-20 04:03:00,
2013-09-19 21:05:00,55.0,52.4,29.82,SSW,200,5.0,6.0,91,0.00,,,0.01,Wunderground v.1.15,2013-09-20 04:05:00,
2013-09-19 21:10:00,54.9,52.3,29.82,SSW,200,4.0,4.0,91,0.00,,,0.01,Wunderground v.1.15,2013-09-20 04:10:00,
2013-09-19 21:15:00,54.8,52.5,29.82,SSW,200,4.0,4.0,92,0.00,,,0.01,Wunderground v.1.15,2013-09-20 04:15:00,
2013-09-19 21:21:00,54.8,52.8,29.82,SSW,200,3.0,4.0,93,0.00,,,0.01,Wunderground v.1.15,2013-09-20 04:21:00,
2013-09-19 21:27:00,54.7,52.7,29.82,SSW,200,3.0,4.0,93,0.00,,,0.01,Wunderground v.1.15,2013-09-20 04:27:00,
2013-09-19 21:33:00,54.5,52.5,29.82,SSW,200,3.0,4.0,93,0.00,,,0.01,Wunderground v.1.15,2013-09-20 04:33:00,
2013-09-19 21:39:00,54.3,52.3,29.81,SSW,200,3.0,4.0,93,0.00,,,0.01,Wunderground v.1.15,2013-09-20 04:39:00,
2013-09-19 21:45:00,54.1,52.1,29.81,SSW,200,2.0,4.0,93,0.00,,,0.01,Wunderground v.1.15,2013-09-20 04:45:00,
2013-09-19 21:51:00,53.8,51.8,29.81,SSW,200,2.0,4.0,93,0.00,,,0.01,Wunderground v.1.15,2013-09-20 04:51:00,
2013-09-19 21:57:00,53.6,51.6,29.81,SSW,200,3.0,4.0,93,0.00,,,0.01,Wunderground v.1.15,2013-09-20 04:57:00,
2013-09-19 22:02:00,53.4,51.4,29.81,SSW,200,3.0,4.0,93,0.00,,,0.01,Wunderground v.1.15,2013-09-20 05:02:00,
2013-09-19 22:08:00,53.3,51.6,29.81,SSW,200,3.0,4.0,94,0.00,,,0.01,Wunderground v.1.15,2013-09-20 05:08:00,
2013-09-19 22:14:00,53.3,51.6,29.81,SSW,200,3.0,4.0,94,0.00,,,0.01,Wunderground v.1.15,2013-09-20 05:14:00,
2013-09-19 22:20:00,53.1,51.4,29.81,SSW,200,3.0,3.0,94,0.00,,,0.01,Wunderground v.1.15,2013-09-20 05:20:00,
2013-09-19 22:26:00,52.5,50.5,29.81,SSW,201,2.0,4.0,93,0.00,,,0.01,Wunderground v.1.15,2013-09-20 05:26:00,
2013-09-19 22:32:00,52.0,50.0,29.81,SSW,200,2.0,4.0,93,0.00,,,0.01,Wunderground v.1.15,2013-09-20 05:32:00,
2013-09-19 22:37:00,51.6,49.6,29.81,SSW,200,2.0,4.0,93,0.00,,,0.01,Wunderground v.1.15,2013-09-20 05:37:00,
2013-09-19 22:43:00,51.3,49.3,29.81,SSW,200,1.0,4.0,93,0.00,,,0.01,Wunderground v.1.15,2013-09-20 05:43:00,
2013-09-19 22:48:00,51.2,49.2,29.81,SSW,200,0.0,4.0,93,0.00,,,0.01,Wunderground v.1.15,2013-09-20 05:48:00,
2013-09-19 22:54:00,51.0,49.3,29.81,SSW,200,1.0,4.0,94,0.00,,,0.01,Wunderground v.1.15,2013-09-20 05:54:00,
2013-09-19 23:00:00,51.0,49.0,29.81,SSW,200,1.0,1.0,93,0.00,,,0.01,Wunderground v.1.15,2013-09-20 06:00:00,
2013-09-19 23:06:00,51.0,49.0,29.81,SSW,200,0.0,4.0,93,0.00,,,0.01,Wunderground v.1.15,2013-09-20 06:06:00,
2013-09-19 23:12:00,51.0,49.3,29.81,SSW,200,1.0,4.0,94,0.00,,,0.01,Wunderground v.1.15,2013-09-20 06:12:00,
2013-09-19 23:17:00,51.3,49.6,29.81,SSW,201,1.0,4.0,94,0.00,,,0.01,Wunderground v.1.15,2013-09-20 06:17:00,
2013-09-19 23:23:00,51.5,49.5,29.81,SSW,201,1.0,4.0,93,0.00,,,0.01,Wunderground v.1.15,2013-09-20 06:23:00,
2013-09-19 23:28:00,51.7,49.7,29.80,SSW,200,2.0,4.0,93,0.00,,,0.01,Wunderground v.1.15,2013-09-20 06:28:00,
2013-09-19 23:34:00,51.8,49.8,29.80,SSW,201,1.0,4.0,93,0.00,,,0.01,Wunderground v.1.15,2013-09-20 06:34:00,
2013-09-19 23:40:00,51.9,49.6,29.80,SSW,201,1.0,1.0,92,0.00,,,0.01,Wunderground v.1.15,2013-09-20 06:40:00,
2013-09-19 23:45:00,52.0,49.7,29.80,SSW,201,0.0,4.0,92,0.00,,,0.01,Wunderground v.1.15,2013-09-20 06:45:00,
2013-09-19 23:51:00,52.1,49.8,29.80,SSW,200,0.0,4.0,92,0.00,,,0.01,Wunderground v.1.15,2013-09-20 06:51:00,
2013-09-19 23:57:00,52.7,50.7,29.79,SSW,200,2.0,7.0,93,0.00,,,0.01,Wunderground v.1.15,2013-09-20 06:57:00,